createdAt,value
2019-03-04T00:00:41.890Z,10.30
2019-03-04T00:03:13.655Z,10.30
2019-03-04T00:05:42.895Z,10.20
2019-03-04T00:08:12.075Z,10.20
2019-03-04T00:10:41.219Z,10.20
2019-03-04T00:13:10.402Z,10.20
2019-03-04T00:15:39.633Z,10.20
2019-03-04T00:18:08.784Z,10.20
2019-03-04T00:20:37.942Z,10.20
2019-03-04T00:23:07.084Z,10.20
2019-03-04T00:25:36.240Z,10.20
2019-03-04T00:28:05.387Z,10.20
2019-03-04T00:30:34.567Z,10.10
2019-03-04T00:33:03.726Z,10.10
2019-03-04T00:35:32.878Z,10.10
2019-03-04T00:38:02.058Z,10.00
2019-03-04T00:40:34.107Z,10.00
2019-03-04T00:43:03.263Z,10.00
2019-03-04T00:45:32.746Z,10.00
2019-03-04T00:48:02.078Z,10.00
2019-03-04T00:50:31.261Z,10.00
2019-03-04T00:53:00.407Z,10.00
2019-03-04T00:55:29.578Z,9.90
2019-03-04T00:57:58.739Z,10.00
2019-03-04T01:00:27.902Z,10.00
2019-03-04T01:02:57.130Z,9.90
2019-03-04T01:05:26.251Z,9.90
2019-03-04T01:07:55.397Z,9.90
2019-03-04T01:10:24.619Z,9.90
2019-03-04T01:12:53.758Z,10.00
2019-03-04T01:15:22.925Z,10.00
2019-03-04T01:17:54.763Z,10.00
2019-03-04T01:20:23.934Z,10.00
2019-03-04T01:23:02.122Z,10.00
2019-03-04T01:25:32.343Z,10.10
2019-03-04T01:28:03.133Z,10.10
2019-03-04T01:30:35.033Z,10.20
2019-03-04T01:33:04.191Z,10.20
2019-03-04T01:35:33.343Z,10.20
2019-03-04T01:38:02.491Z,10.20
2019-03-04T01:40:31.648Z,10.30
2019-03-04T01:43:00.808Z,10.30
2019-03-04T01:45:29.968Z,10.30
2019-03-04T01:47:59.117Z,10.20
2019-03-04T01:50:28.267Z,10.20
2019-03-04T01:52:57.412Z,10.10
2019-03-04T01:55:26.615Z,10.00
2019-03-04T01:57:55.776Z,10.00
2019-03-04T02:00:24.958Z,9.90
2019-03-04T02:02:54.138Z,9.90
2019-03-04T02:05:23.287Z,9.80
2019-03-04T02:07:52.430Z,9.80
2019-03-04T02:10:21.562Z,9.80
2019-03-04T02:12:50.713Z,9.70
2019-03-04T02:15:20.500Z,9.70
2019-03-04T02:17:49.722Z,9.60
2019-03-04T02:20:18.923Z,9.60
2019-03-04T02:22:48.157Z,9.50
2019-03-04T02:25:19.035Z,9.50
2019-03-04T02:27:53.837Z,9.50
2019-03-04T02:30:27.779Z,9.40
2019-03-04T02:32:56.903Z,9.40
2019-03-04T02:35:26.051Z,9.50
2019-03-04T02:37:55.198Z,9.50
2019-03-04T02:40:24.367Z,9.40
2019-03-04T02:42:53.585Z,9.40
2019-03-04T02:45:22.801Z,9.40
2019-03-04T02:47:52.015Z,9.30
2019-03-04T02:50:21.178Z,9.40
2019-03-04T02:52:50.397Z,9.40
2019-03-04T02:55:19.568Z,9.30
2019-03-04T02:57:48.771Z,9.30
2019-03-04T03:00:19.129Z,9.30
2019-03-04T03:02:48.321Z,9.20
2019-03-04T03:05:17.559Z,9.20
2019-03-04T03:07:46.703Z,9.20
2019-03-04T03:10:15.963Z,9.10
2019-03-04T03:12:45.093Z,9.10
2019-03-04T03:15:16.362Z,9.10
2019-03-04T03:17:45.578Z,9.10
2019-03-04T03:20:15.641Z,9.10
2019-03-04T03:22:44.825Z,9.00
2019-03-04T03:25:15.099Z,8.90
2019-03-04T03:27:45.298Z,8.90
2019-03-04T03:30:35.545Z,8.90
2019-03-04T03:33:04.697Z,9.00
2019-03-04T03:35:33.912Z,8.90
2019-03-04T03:38:03.056Z,9.00
2019-03-04T03:40:32.202Z,8.90
2019-03-04T03:43:01.356Z,8.90
2019-03-04T03:45:30.516Z,8.90
2019-03-04T03:47:59.670Z,8.90
2019-03-04T03:50:29.788Z,8.90
2019-03-04T03:52:58.919Z,9.00
2019-03-04T03:55:28.077Z,9.00
2019-03-04T03:57:57.296Z,9.00
2019-03-04T04:00:26.584Z,9.00
2019-03-04T04:02:55.875Z,9.10
2019-03-04T04:05:28.254Z,9.10
2019-03-04T04:07:57.475Z,9.10
2019-03-04T04:10:26.643Z,9.00
2019-03-04T04:12:55.804Z,9.10
2019-03-04T04:15:24.952Z,9.00
2019-03-04T04:17:54.122Z,9.10
2019-03-04T04:20:23.266Z,9.10
2019-03-04T04:22:52.427Z,9.10
2019-03-04T04:25:21.570Z,9.10
2019-03-04T04:27:50.723Z,9.10
2019-03-04T04:30:34.180Z,9.20
2019-03-04T04:33:03.398Z,9.20
2019-03-04T04:35:32.538Z,9.10
2019-03-04T04:38:01.750Z,9.10
2019-03-04T04:40:30.884Z,9.10
2019-03-04T04:43:00.032Z,9.20
2019-03-04T04:45:29.159Z,9.10
2019-03-04T04:47:58.315Z,9.10
2019-03-04T04:50:29.783Z,9.20
2019-03-04T04:52:58.965Z,9.20
2019-03-04T04:55:28.107Z,9.20
2019-03-04T04:57:57.257Z,9.30
2019-03-04T05:00:26.417Z,9.30
2019-03-04T05:02:55.639Z,9.30
2019-03-04T05:05:24.783Z,9.40
2019-03-04T05:07:53.946Z,9.40
2019-03-04T05:10:26.035Z,9.40
2019-03-04T05:12:55.270Z,9.40
2019-03-04T05:15:24.497Z,9.50
2019-03-04T05:17:53.671Z,9.50
2019-03-04T05:20:26.741Z,9.50
2019-03-04T05:22:55.895Z,9.60
2019-03-04T05:25:25.046Z,9.60
2019-03-04T05:27:54.217Z,9.60
2019-03-04T05:30:23.447Z,9.60
2019-03-04T05:32:52.571Z,9.60
2019-03-04T05:35:21.733Z,9.60
2019-03-04T05:37:50.996Z,9.60
2019-03-04T05:40:21.851Z,9.70
2019-03-04T05:42:51.065Z,9.70
2019-03-04T05:45:20.191Z,9.70
2019-03-04T05:47:49.343Z,9.70
2019-03-04T05:50:23.860Z,9.70
2019-03-04T05:52:53.149Z,9.70
2019-03-04T05:55:22.363Z,9.70
2019-03-04T05:57:51.486Z,9.80
2019-03-04T06:00:25.416Z,9.80
2019-03-04T06:02:58.439Z,9.80
2019-03-04T06:05:27.584Z,9.80
2019-03-04T06:07:58.351Z,9.90
2019-03-04T06:10:27.510Z,9.90
2019-03-04T06:12:58.722Z,9.90
2019-03-04T06:15:27.560Z,9.90
2019-03-04T06:17:57.875Z,9.90
2019-03-04T06:20:28.714Z,9.90
2019-03-04T06:22:57.887Z,10.00
2019-03-04T06:25:30.196Z,10.00
2019-03-04T06:27:59.377Z,10.00
2019-03-04T06:30:31.964Z,10.10
2019-03-04T06:33:01.119Z,10.10
2019-03-04T06:35:30.260Z,10.20
2019-03-04T06:37:59.502Z,10.20
2019-03-04T06:40:28.661Z,10.20
2019-03-04T06:42:57.859Z,10.20
2019-03-04T06:45:27.586Z,10.20
2019-03-04T06:47:56.722Z,10.20
2019-03-04T06:50:48.071Z,10.30
2019-03-04T06:53:32.070Z,10.30
2019-03-04T06:56:19.331Z,10.30
2019-03-04T06:58:57.509Z,10.40
2019-03-04T07:01:29.926Z,10.40
2019-03-04T07:04:02.391Z,10.40
2019-03-04T07:06:31.623Z,10.50
2019-03-04T07:09:04.971Z,10.50
2019-03-04T07:11:35.766Z,10.50
2019-03-04T07:14:05.979Z,10.50
2019-03-04T07:16:35.158Z,10.50
2019-03-04T07:19:04.738Z,10.50
2019-03-04T07:21:33.951Z,10.60
2019-03-04T07:24:03.112Z,10.70
2019-03-04T07:26:32.264Z,10.80
2019-03-04T07:29:01.416Z,10.90
2019-03-04T07:31:30.582Z,10.90
2019-03-04T07:33:59.795Z,10.90
2019-03-04T07:36:28.989Z,11.00
2019-03-04T07:38:58.225Z,11.00
2019-03-04T07:41:27.616Z,11.00
2019-03-04T07:43:56.758Z,11.10
2019-03-04T07:46:25.931Z,11.20
2019-03-04T07:48:55.051Z,11.20
2019-03-04T07:51:24.279Z,11.20
2019-03-04T07:53:53.427Z,11.20
2019-03-04T07:56:22.584Z,11.20
2019-03-04T07:58:51.716Z,11.20
2019-03-04T08:01:21.165Z,11.20
2019-03-04T08:03:50.335Z,11.30
2019-03-04T08:06:19.537Z,11.30
2019-03-04T08:09:14.983Z,11.30
2019-03-04T08:12:06.564Z,11.30
2019-03-04T08:14:35.739Z,11.40
2019-03-04T08:17:04.870Z,11.40
2019-03-04T08:19:34.022Z,11.40
2019-03-04T08:22:03.226Z,11.40
2019-03-04T08:24:32.941Z,11.40
2019-03-04T08:27:02.105Z,11.50
2019-03-04T08:29:31.422Z,11.60
2019-03-04T08:32:00.648Z,11.60
2019-03-04T08:34:31.303Z,11.70
2019-03-04T08:37:00.870Z,11.80
2019-03-04T08:39:30.064Z,11.80
2019-03-04T08:41:59.303Z,12.10
2019-03-04T08:44:28.463Z,12.40
2019-03-04T08:46:57.629Z,12.60
2019-03-04T08:49:26.790Z,12.90
2019-03-04T08:51:55.930Z,13.00
2019-03-04T08:54:25.100Z,13.10
2019-03-04T08:57:00.814Z,13.00
2019-03-04T08:59:25.103Z,13.10
2019-03-04T09:01:54.318Z,13.00
2019-03-04T09:04:23.456Z,13.10
2019-03-04T09:06:52.611Z,13.10
2019-03-04T09:09:21.747Z,13.20
2019-03-04T09:11:50.983Z,13.20
2019-03-04T09:14:20.133Z,13.20
2019-03-04T09:16:49.316Z,13.20
2019-03-04T09:19:18.447Z,13.20
2019-03-04T09:21:47.695Z,13.10
2019-03-04T09:24:16.842Z,13.10
2019-03-04T09:26:45.984Z,13.20
2019-03-04T09:29:15.149Z,13.20
2019-03-04T09:31:44.407Z,13.10
2019-03-04T09:34:13.621Z,13.30
2019-03-04T09:36:43.951Z,13.30
2019-03-04T09:39:14.054Z,13.40
2019-03-04T09:41:43.190Z,13.50
2019-03-04T09:44:12.339Z,13.50
2019-03-04T09:46:41.473Z,13.40
2019-03-04T09:49:10.620Z,13.40
2019-03-04T09:51:39.808Z,13.30
2019-03-04T09:54:08.992Z,13.40
2019-03-04T09:56:38.204Z,13.40
2019-03-04T09:59:07.367Z,13.30
2019-03-04T10:01:42.654Z,13.20
2019-03-04T10:04:17.777Z,13.20
2019-03-04T10:07:08.411Z,13.20
2019-03-04T10:09:52.455Z,13.30
2019-03-04T10:12:39.954Z,13.40
2019-03-04T10:15:33.398Z,13.50
2019-03-04T10:18:17.566Z,13.60
2019-03-04T10:21:01.719Z,13.80
2019-03-04T10:23:37.191Z,13.80
2019-03-04T10:26:22.687Z,13.80
2019-03-04T10:29:22.343Z,13.90
2019-03-04T10:31:57.769Z,14.00
2019-03-04T10:34:49.649Z,14.20
2019-03-04T10:37:38.625Z,14.30
2019-03-04T10:40:25.741Z,14.30
2019-03-04T10:43:13.060Z,14.60
2019-03-04T10:45:45.554Z,15.20
2019-03-04T10:48:14.736Z,15.80
2019-03-04T10:50:43.951Z,16.00
2019-03-04T10:53:13.137Z,15.80
2019-03-04T10:55:42.558Z,15.60
2019-03-04T10:58:11.839Z,15.60
2019-03-04T11:00:41.065Z,15.40
2019-03-04T11:03:10.305Z,15.30
2019-03-04T11:05:39.485Z,15.20
2019-03-04T11:08:08.674Z,15.10
2019-03-04T11:10:37.828Z,15.10
2019-03-04T11:13:07.026Z,15.00
2019-03-04T11:15:36.232Z,15.00
2019-03-04T11:18:05.433Z,15.00
2019-03-04T11:20:34.723Z,15.00
2019-03-04T11:23:03.936Z,15.20
2019-03-04T11:25:34.158Z,15.40
2019-03-04T11:28:03.282Z,15.50
2019-03-04T11:30:33.520Z,15.30
2019-03-04T11:33:02.659Z,13.50
2019-03-04T11:35:31.795Z,11.20
2019-03-04T11:38:01.009Z,10.10
2019-03-04T11:40:33.845Z,9.50
2019-03-04T11:43:09.175Z,9.40
2019-03-04T11:45:38.386Z,9.30
2019-03-04T11:48:07.617Z,9.10
2019-03-04T11:50:36.754Z,8.80
2019-03-04T11:53:05.899Z,8.70
2019-03-04T11:55:35.091Z,8.80
2019-03-04T11:58:04.293Z,8.80
2019-03-04T12:00:41.459Z,8.80
2019-03-04T12:03:10.837Z,8.70
2019-03-04T12:05:39.971Z,8.60
2019-03-04T12:08:09.116Z,8.60
2019-03-04T12:10:38.267Z,8.70
2019-03-04T12:13:07.419Z,8.80
2019-03-04T12:15:37.514Z,9.00
2019-03-04T12:18:09.689Z,9.10
2019-03-04T12:20:38.851Z,9.10
2019-03-04T12:23:07.999Z,9.30
2019-03-04T12:25:37.284Z,9.70
2019-03-04T12:28:06.513Z,10.00
2019-03-04T12:30:35.709Z,10.40
2019-03-04T12:33:05.728Z,10.60
2019-03-04T12:35:34.944Z,10.80
2019-03-04T12:38:04.095Z,10.80
2019-03-04T12:40:33.255Z,10.90
2019-03-04T12:43:02.387Z,11.00
2019-03-04T12:45:34.704Z,11.20
2019-03-04T12:48:02.505Z,11.40
2019-03-04T12:50:33.406Z,11.70
2019-03-04T12:53:02.631Z,11.90
2019-03-04T12:55:31.756Z,12.00
2019-03-04T12:58:01.921Z,12.10
2019-03-04T13:00:37.290Z,12.30
2019-03-04T13:03:07.374Z,12.20
2019-03-04T13:05:36.515Z,12.30
2019-03-04T13:08:05.672Z,12.40
2019-03-04T13:10:35.475Z,12.60
2019-03-04T13:13:04.609Z,12.60
2019-03-04T13:15:36.448Z,12.50
2019-03-04T13:18:12.939Z,12.60
2019-03-04T13:20:42.687Z,12.60
2019-03-04T13:23:12.912Z,12.70
2019-03-04T13:25:42.062Z,12.70
2019-03-04T13:28:11.192Z,12.70
2019-03-04T13:30:41.900Z,12.60
2019-03-04T13:33:11.034Z,12.60
2019-03-04T13:35:42.199Z,12.90
2019-03-04T13:38:11.354Z,13.20
2019-03-04T13:40:40.561Z,13.50
2019-03-04T13:43:21.542Z,13.80
2019-03-04T13:45:51.943Z,14.00
2019-03-04T13:48:21.084Z,14.20
2019-03-04T13:50:50.246Z,14.50
2019-03-04T13:53:19.400Z,14.50
2019-03-04T13:55:48.569Z,14.60
2019-03-04T13:58:17.780Z,14.60
2019-03-04T14:00:46.948Z,15.00
2019-03-04T14:03:16.074Z,15.30
2019-03-04T14:05:45.231Z,15.60
2019-03-04T14:08:14.383Z,15.80
2019-03-04T14:10:48.739Z,15.90
2019-03-04T14:13:17.940Z,15.90
2019-03-04T14:15:49.194Z,15.80
2019-03-04T14:18:18.371Z,15.80
2019-03-04T14:20:48.415Z,15.70
2019-03-04T14:23:17.575Z,15.50
2019-03-04T14:25:46.702Z,15.30
2019-03-04T14:28:15.868Z,15.30
2019-03-04T14:30:45.084Z,15.00
2019-03-04T14:33:14.255Z,15.00
2019-03-04T14:35:43.468Z,14.90
2019-03-04T14:38:12.643Z,14.70
2019-03-04T14:40:41.804Z,14.80
2019-03-04T14:43:11.071Z,14.70
2019-03-04T14:45:40.249Z,14.70
2019-03-04T14:48:09.399Z,14.60
2019-03-04T14:50:38.539Z,14.60
2019-03-04T14:53:07.709Z,14.50
2019-03-04T14:55:39.373Z,14.40
2019-03-04T14:58:08.510Z,14.20
2019-03-04T15:00:42.256Z,14.20
2019-03-04T15:03:19.841Z,14.10
2019-03-04T15:05:42.311Z,14.10
2019-03-04T15:08:11.440Z,14.00
2019-03-04T15:10:40.589Z,13.90
2019-03-04T15:13:10.159Z,13.80
2019-03-04T15:15:39.446Z,13.70
2019-03-04T15:18:08.657Z,13.60
2019-03-04T15:20:37.879Z,13.70
2019-03-04T15:23:07.040Z,13.80
2019-03-04T15:25:41.460Z,13.90
2019-03-04T15:28:16.930Z,14.00
2019-03-04T15:30:51.247Z,14.00
2019-03-04T15:33:20.779Z,13.90
2019-03-04T15:35:51.343Z,13.80
2019-03-04T15:38:20.559Z,13.80
2019-03-04T15:40:49.690Z,13.70
2019-03-04T15:43:18.845Z,13.70
2019-03-04T15:45:49.655Z,13.70
2019-03-04T15:48:20.748Z,13.60
2019-03-04T15:50:49.914Z,13.60
2019-03-04T15:53:19.134Z,13.50
2019-03-04T15:55:48.278Z,13.40
2019-03-04T15:58:17.482Z,13.40
2019-03-04T16:00:46.634Z,13.30
2019-03-04T16:03:15.768Z,13.30
2019-03-04T16:05:44.947Z,13.20
2019-03-04T16:08:14.103Z,13.20
2019-03-04T16:10:43.303Z,13.20
2019-03-04T16:13:12.503Z,13.10
2019-03-04T16:15:44.391Z,12.50
2019-03-04T16:18:13.612Z,9.80
2019-03-04T16:20:46.182Z,8.20
2019-03-04T16:23:16.926Z,7.30
2019-03-04T16:25:46.137Z,6.80
2019-03-04T16:28:27.544Z,6.70
2019-03-04T16:30:56.835Z,6.60
2019-03-04T16:33:26.083Z,6.60
2019-03-04T16:35:55.229Z,6.50
2019-03-04T16:38:25.436Z,6.40
2019-03-04T16:40:54.582Z,6.30
2019-03-04T16:43:23.747Z,6.30
2019-03-04T16:45:52.932Z,6.30
2019-03-04T16:48:22.079Z,6.30
2019-03-04T16:50:51.224Z,6.20
2019-03-04T16:53:29.203Z,6.20
2019-03-04T16:55:58.372Z,6.10
2019-03-04T16:58:29.238Z,6.10
2019-03-04T17:00:58.671Z,6.00
2019-03-04T17:03:28.188Z,5.90
2019-03-04T17:05:57.350Z,5.90
2019-03-04T17:08:26.479Z,5.80
2019-03-04T17:10:56.387Z,5.80
2019-03-04T17:13:25.623Z,5.80
2019-03-04T17:15:54.772Z,5.80
2019-03-04T17:18:24.038Z,5.80
2019-03-04T17:20:53.490Z,5.80
2019-03-04T17:23:22.675Z,5.80
2019-03-04T17:25:51.886Z,5.80
2019-03-04T17:28:21.285Z,5.80
2019-03-04T17:30:50.452Z,5.80
2019-03-04T17:33:19.595Z,5.80
2019-03-04T17:35:48.744Z,5.90
2019-03-04T17:38:17.904Z,5.90
2019-03-04T17:40:48.154Z,5.80
2019-03-04T17:43:17.302Z,5.80
2019-03-04T17:45:46.459Z,5.80
2019-03-04T17:48:15.648Z,5.70
2019-03-04T17:50:46.643Z,5.70
2019-03-04T17:53:16.583Z,5.70
2019-03-04T17:55:46.207Z,5.60
2019-03-04T17:58:15.435Z,5.60
2019-03-04T18:00:46.458Z,5.60
2019-03-04T18:03:15.658Z,5.50
2019-03-04T18:05:44.894Z,5.50
2019-03-04T18:08:14.141Z,5.40
2019-03-04T18:10:43.271Z,5.40
2019-03-04T18:13:14.896Z,5.40
2019-03-04T18:15:44.034Z,5.30
2019-03-04T18:18:13.826Z,5.30
2019-03-04T18:20:44.432Z,5.30
2019-03-04T18:23:13.566Z,5.30
2019-03-04T18:25:54.471Z,5.20
2019-03-04T18:28:35.902Z,5.20
2019-03-04T18:31:20.133Z,5.20
2019-03-04T18:33:55.722Z,5.20
2019-03-04T18:36:34.231Z,5.20
2019-03-04T18:39:15.452Z,5.20
2019-03-04T18:42:00.182Z,5.20
2019-03-04T18:44:46.037Z,5.20
2019-03-04T18:47:28.313Z,5.20
2019-03-04T18:49:59.070Z,5.20
2019-03-04T18:52:28.878Z,5.20
2019-03-04T18:54:58.313Z,5.30
2019-03-04T18:57:27.674Z,5.40
2019-03-04T18:59:56.826Z,5.40
2019-03-04T19:02:26.126Z,5.50
2019-03-04T19:05:00.947Z,5.50
2019-03-04T19:07:30.087Z,5.60
2019-03-04T19:09:59.351Z,5.60
2019-03-04T19:12:28.657Z,5.60
2019-03-04T19:14:57.995Z,5.60
2019-03-04T19:17:33.573Z,5.70
2019-03-04T19:19:58.464Z,5.70
2019-03-04T19:22:27.927Z,5.70
2019-03-04T19:24:57.867Z,5.80
2019-03-04T19:27:46.983Z,5.80
2019-03-04T19:30:16.241Z,5.90
2019-03-04T19:32:45.477Z,5.90
2019-03-04T19:35:15.384Z,6.00
2019-03-04T19:37:44.599Z,6.00
2019-03-04T19:40:16.291Z,6.10
2019-03-04T19:42:47.072Z,6.20
2019-03-04T19:45:19.674Z,6.30
2019-03-04T19:47:49.320Z,6.40
2019-03-04T19:50:18.620Z,6.30
2019-03-04T19:52:47.856Z,6.40
2019-03-04T19:55:20.031Z,6.40
2019-03-04T19:57:49.311Z,6.40
2019-03-04T20:00:26.724Z,6.40
2019-03-04T20:02:56.540Z,6.50
2019-03-04T20:05:25.920Z,6.50
2019-03-04T20:07:55.162Z,6.50
2019-03-04T20:10:26.919Z,6.50
2019-03-04T20:12:57.726Z,6.60
2019-03-04T20:15:31.568Z,6.60
2019-03-04T20:18:00.730Z,6.70
2019-03-04T20:20:29.907Z,6.70
2019-03-04T20:23:02.160Z,6.70
2019-03-04T20:25:31.573Z,6.70
2019-03-04T20:28:00.799Z,6.70
2019-03-04T20:30:31.852Z,6.80
2019-03-04T20:33:01.119Z,6.80
2019-03-04T20:35:30.537Z,6.90
2019-03-04T20:38:05.828Z,6.80
2019-03-04T20:40:34.959Z,6.80
2019-03-04T20:43:04.249Z,6.80
2019-03-04T20:45:36.590Z,6.80
2019-03-04T20:48:05.798Z,6.90
2019-03-04T20:50:35.001Z,6.90
2019-03-04T20:53:05.259Z,7.00
2019-03-04T20:55:34.410Z,7.00
2019-03-04T20:58:03.606Z,7.00
2019-03-04T21:00:35.337Z,7.10
2019-03-04T21:03:08.610Z,7.10
2019-03-04T21:05:37.917Z,7.10
2019-03-04T21:08:07.420Z,7.10
2019-03-04T21:10:37.489Z,7.20
2019-03-04T21:13:23.103Z,7.20
2019-03-04T21:15:55.854Z,7.20
2019-03-04T21:18:25.056Z,7.30
2019-03-04T21:20:55.996Z,7.20
2019-03-04T21:23:25.140Z,7.20
2019-03-04T21:26:16.866Z,7.20
2019-03-04T21:29:00.732Z,7.20
2019-03-04T21:31:36.058Z,7.20
2019-03-04T21:34:10.862Z,7.10
2019-03-04T21:36:48.423Z,7.10
2019-03-04T21:39:38.307Z,7.00
2019-03-04T21:42:30.171Z,7.00
2019-03-04T21:45:02.731Z,7.00
2019-03-04T21:47:35.532Z,6.90
2019-03-04T21:50:08.184Z,6.80
2019-03-04T21:52:43.781Z,6.80
2019-03-04T21:55:16.284Z,6.70
2019-03-04T21:57:48.249Z,6.70
2019-03-04T22:00:22.257Z,6.60
2019-03-04T22:02:57.444Z,6.60
2019-03-04T22:05:26.659Z,6.60
2019-03-04T22:07:55.907Z,6.60
2019-03-04T22:10:25.067Z,6.60
2019-03-04T22:12:54.323Z,6.60
2019-03-04T22:15:23.455Z,6.60
2019-03-04T22:17:52.594Z,6.50
2019-03-04T22:20:21.791Z,6.60
2019-03-04T22:22:51.082Z,6.50
2019-03-04T22:25:20.265Z,6.50
2019-03-04T22:27:49.495Z,6.50
2019-03-04T22:30:19.323Z,6.50
2019-03-04T22:32:48.448Z,6.50
2019-03-04T22:35:19.359Z,6.50
2019-03-04T22:37:48.530Z,6.50
2019-03-04T22:40:19.776Z,6.60
2019-03-04T22:42:50.587Z,6.60
2019-03-04T22:45:21.150Z,6.60
2019-03-04T22:47:51.329Z,6.60
2019-03-04T22:50:21.667Z,6.60
2019-03-04T22:52:50.821Z,6.60
2019-03-04T22:55:25.919Z,6.60
2019-03-04T22:57:55.192Z,6.80
2019-03-04T23:00:47.411Z,6.80
2019-03-04T23:03:17.778Z,6.80
2019-03-04T23:05:52.234Z,6.70
2019-03-04T23:08:20.695Z,6.70
2019-03-04T23:10:51.025Z,6.70
2019-03-04T23:13:29.119Z,6.60
2019-03-04T23:16:00.533Z,6.60
2019-03-04T23:18:29.874Z,6.60
2019-03-04T23:20:59.095Z,6.50
2019-03-04T23:23:28.792Z,6.50
2019-03-04T23:25:57.923Z,6.50
2019-03-04T23:28:27.058Z,6.50
2019-03-04T23:30:56.217Z,6.50
2019-03-04T23:33:25.350Z,6.50
2019-03-04T23:35:54.522Z,6.40
2019-03-04T23:38:23.685Z,6.40
2019-03-04T23:40:52.858Z,6.30
2019-03-04T23:43:22.015Z,6.40
2019-03-04T23:45:51.198Z,6.30
2019-03-04T23:48:20.361Z,6.40
2019-03-04T23:50:49.589Z,6.50
2019-03-04T23:53:18.803Z,6.50
2019-03-04T23:55:48.583Z,6.60
2019-03-04T23:58:17.733Z,6.60
